createdAt,value
2022-11-02T00:01:26.008Z,100912.69
2022-11-02T00:03:52.477Z,100905.69
2022-11-02T00:06:18.918Z,100911.75
2022-11-02T00:08:45.676Z,100915.28
2022-11-02T00:11:12.154Z,100910.88
2022-11-02T00:13:38.609Z,100916.09
2022-11-02T00:16:08.810Z,100904.69
2022-11-02T00:18:36.945Z,100909.94
2022-11-02T00:21:04.622Z,100918.69
2022-11-02T00:23:32.218Z,100916.94
2022-11-02T00:26:02.534Z,100924.06
2022-11-02T00:28:30.492Z,100912.91
2022-11-02T00:30:56.968Z,100907.78
2022-11-02T00:33:23.571Z,100901.72
2022-11-02T00:35:49.987Z,100907.91
2022-11-02T00:38:16.381Z,100905.38
2022-11-02T00:40:42.818Z,100903.59
2022-11-02T00:43:09.194Z,100908.84
2022-11-02T00:45:35.673Z,100904.47
2022-11-02T00:48:02.464Z,100907.94
2022-11-02T00:50:29.090Z,100902.69
2022-11-02T00:52:55.644Z,100906.16
2022-11-02T00:55:22.356Z,100911.41
2022-11-02T00:57:49.089Z,100914.84
2022-11-02T01:00:17.117Z,100910.44
2022-11-02T01:02:43.724Z,100905.19
2022-11-02T01:05:10.675Z,100913.03
2022-11-02T01:07:37.845Z,100919.16
2022-11-02T01:10:06.411Z,100920.00
2022-11-02T01:12:32.887Z,100913.03
2022-11-02T01:14:59.371Z,100917.44
2022-11-02T01:17:25.793Z,100917.56
2022-11-02T01:19:52.241Z,100921.97
2022-11-02T01:22:18.681Z,100921.13
2022-11-02T01:24:45.098Z,100912.38
2022-11-02T01:27:11.514Z,100923.75
2022-11-02T01:29:37.974Z,100915.78
2022-11-02T01:32:04.669Z,100916.59
2022-11-02T01:34:31.140Z,100910.44
2022-11-02T01:36:57.541Z,100914.78
2022-11-02T01:39:23.940Z,100914.72
2022-11-02T01:41:53.031Z,100909.38
2022-11-02T01:44:27.649Z,100911.97
2022-11-02T01:46:57.653Z,100917.09
2022-11-02T01:49:25.117Z,100922.41
2022-11-02T01:51:59.021Z,100921.47
2022-11-02T01:54:29.804Z,100918.03
2022-11-02T01:57:01.453Z,100920.72
2022-11-02T01:59:34.982Z,100925.09
2022-11-02T02:02:05.133Z,100914.59
2022-11-02T02:04:33.115Z,100926.84
2022-11-02T02:07:00.162Z,100919.88
2022-11-02T02:09:27.574Z,100919.97
2022-11-02T02:11:54.032Z,100920.97
2022-11-02T02:14:21.281Z,100922.69
2022-11-02T02:17:03.143Z,100919.31
2022-11-02T02:20:01.944Z,100920.22
2022-11-02T02:23:01.990Z,100925.47
2022-11-02T02:25:50.182Z,100926.41
2022-11-02T02:28:40.608Z,100935.09
2022-11-02T02:31:25.336Z,100922.03
2022-11-02T02:34:12.448Z,100923.75
2022-11-02T02:36:47.703Z,100923.69
2022-11-02T02:39:30.849Z,100929.78
2022-11-02T02:42:25.301Z,100926.22
2022-11-02T02:45:22.937Z,100924.44
2022-11-02T02:48:02.153Z,100920.97
2022-11-02T02:50:40.801Z,100922.75
2022-11-02T02:53:08.025Z,100929.81
2022-11-02T02:55:41.237Z,100929.91
2022-11-02T02:58:14.452Z,100934.41
2022-11-02T03:00:41.292Z,100932.72
2022-11-02T03:03:09.198Z,100928.41
2022-11-02T03:05:37.551Z,100933.75
2022-11-02T03:08:10.866Z,100930.22
2022-11-02T03:10:53.369Z,100931.97
2022-11-02T03:13:37.920Z,100935.44
2022-11-02T03:16:26.267Z,100942.38
2022-11-02T03:19:06.231Z,100938.88
2022-11-02T03:21:44.362Z,100942.44
2022-11-02T03:24:20.157Z,100946.88
2022-11-02T03:26:54.111Z,100948.66
2022-11-02T03:29:38.487Z,100957.53
2022-11-02T03:32:14.021Z,100957.56
2022-11-02T03:34:52.509Z,100977.78
2022-11-02T03:37:30.421Z,100973.44
2022-11-02T03:40:21.317Z,100967.34
2022-11-02T03:42:50.590Z,100976.13
2022-11-02T03:45:21.970Z,100970.91
2022-11-02T03:47:53.879Z,100978.78
2022-11-02T03:50:23.010Z,100980.50
2022-11-02T03:52:57.287Z,100980.53
2022-11-02T03:55:35.667Z,100996.31
2022-11-02T03:58:02.466Z,100986.72
2022-11-02T04:00:34.608Z,100992.88
2022-11-02T04:03:04.250Z,100997.25
2022-11-02T04:05:32.882Z,100995.91
2022-11-02T04:08:18.451Z,101010.56
2022-11-02T04:11:03.757Z,101008.59
2022-11-02T04:13:48.636Z,101004.03
2022-11-02T04:16:15.899Z,101014.38
2022-11-02T04:19:02.149Z,101018.56
2022-11-02T04:21:28.950Z,101019.50
2022-11-02T04:24:13.978Z,101019.63
2022-11-02T04:26:40.642Z,101027.63
2022-11-02T04:29:07.457Z,101032.66
2022-11-02T04:31:33.866Z,101027.50
2022-11-02T04:34:00.330Z,101032.97
2022-11-02T04:36:30.040Z,101036.28
2022-11-02T04:38:56.989Z,101042.53
2022-11-02T04:41:42.587Z,101037.16
2022-11-02T04:44:11.279Z,101049.44
2022-11-02T04:46:39.122Z,101039.78
2022-11-02T04:49:06.539Z,101052.88
2022-11-02T04:51:33.681Z,101059.03
2022-11-02T04:54:00.388Z,101066.19
2022-11-02T04:56:28.373Z,101062.78
2022-11-02T04:58:59.573Z,101075.91
2022-11-02T05:01:28.720Z,101082.66
2022-11-02T05:03:56.345Z,101075.66
2022-11-02T05:06:23.877Z,101077.34
2022-11-02T05:08:50.762Z,101078.13
2022-11-02T05:11:17.258Z,101082.66
2022-11-02T05:13:44.671Z,101077.41
2022-11-02T05:16:16.483Z,101087.91
2022-11-02T05:18:43.525Z,101087.84
2022-11-02T05:21:11.431Z,101083.56
2022-11-02T05:23:38.592Z,101080.06
2022-11-02T05:26:09.017Z,101090.63
2022-11-02T05:28:36.484Z,101100.31
2022-11-02T05:31:03.649Z,101097.63
2022-11-02T05:33:31.421Z,101099.31
2022-11-02T05:35:59.088Z,101091.41
2022-11-02T05:38:26.833Z,101101.91
2022-11-02T05:40:54.706Z,101095.78
2022-11-02T05:43:21.930Z,101107.16
2022-11-02T05:45:53.321Z,101094.13
2022-11-02T05:48:19.917Z,101105.47
2022-11-02T05:50:46.400Z,101104.56
2022-11-02T05:53:12.882Z,101110.75
2022-11-02T05:55:39.418Z,101115.06
2022-11-02T05:58:05.833Z,101119.56
2022-11-02T06:00:32.267Z,101130.03
2022-11-02T06:02:59.801Z,101130.13
2022-11-02T06:05:26.689Z,101139.69
2022-11-02T06:07:53.203Z,101141.31
2022-11-02T06:10:19.678Z,101135.19
2022-11-02T06:12:46.162Z,101136.22
2022-11-02T06:15:12.565Z,101140.63
2022-11-02T06:17:40.269Z,101147.78
2022-11-02T06:20:08.064Z,101146.94
2022-11-02T06:22:41.783Z,101152.28
2022-11-02T06:25:09.345Z,101149.81
2022-11-02T06:27:36.144Z,101154.22
2022-11-02T06:30:04.083Z,101148.06
2022-11-02T06:32:30.506Z,101156.72
2022-11-02T06:34:56.930Z,101165.53
2022-11-02T06:37:23.468Z,101169.09
2022-11-02T06:39:49.958Z,101163.03
2022-11-02T06:42:16.396Z,101173.53
2022-11-02T06:44:42.810Z,101185.81
2022-11-02T06:47:09.351Z,101185.84
2022-11-02T06:49:35.751Z,101191.06
2022-11-02T06:52:02.152Z,101198.03
2022-11-02T06:54:28.632Z,101202.50
2022-11-02T06:56:55.079Z,101208.53
2022-11-02T06:59:21.512Z,101216.41
2022-11-02T07:01:52.485Z,101230.41
2022-11-02T07:04:18.996Z,101229.50
2022-11-02T07:06:45.392Z,101227.78
2022-11-02T07:09:11.761Z,101243.53
2022-11-02T07:11:38.165Z,101239.09
2022-11-02T07:14:04.563Z,101242.63
2022-11-02T07:16:30.983Z,101260.94
2022-11-02T07:18:57.716Z,101264.44
2022-11-02T07:21:24.126Z,101265.31
2022-11-02T07:23:50.644Z,101274.03
2022-11-02T07:26:17.068Z,101275.78
2022-11-02T07:28:45.740Z,101287.13
2022-11-02T07:31:12.175Z,101286.28
2022-11-02T07:33:38.577Z,101296.78
2022-11-02T07:36:06.197Z,101301.13
2022-11-02T07:38:32.712Z,101316.84
2022-11-02T07:40:59.206Z,101311.63
2022-11-02T07:43:25.700Z,101314.25
2022-11-02T07:45:52.297Z,101326.50
2022-11-02T07:48:18.699Z,101333.56
2022-11-02T07:50:45.141Z,101333.53
2022-11-02T07:53:11.567Z,101335.25
2022-11-02T07:55:38.197Z,101335.25
2022-11-02T07:58:08.049Z,101344.88
2022-11-02T08:00:37.827Z,101360.59
2022-11-02T08:03:06.156Z,101363.22
2022-11-02T08:05:38.204Z,101361.50
2022-11-02T08:08:11.520Z,101367.66
2022-11-02T08:10:40.442Z,101363.28
2022-11-02T08:13:13.318Z,101369.41
2022-11-02T08:15:39.934Z,101370.19
2022-11-02T08:18:12.026Z,101366.66
2022-11-02T08:20:38.497Z,101377.13
2022-11-02T08:23:05.508Z,101379.75
2022-11-02T08:25:32.415Z,101375.38
2022-11-02T08:28:00.037Z,101362.22
2022-11-02T08:30:28.717Z,101368.34
2022-11-02T08:32:57.070Z,101373.47
2022-11-02T08:35:24.322Z,101375.09
2022-11-02T08:37:57.885Z,101373.34
2022-11-02T08:40:24.492Z,101366.31
2022-11-02T08:42:56.453Z,101380.13
2022-11-02T08:45:23.081Z,101372.25
2022-11-02T08:47:49.575Z,101379.16
2022-11-02T08:50:16.129Z,101383.44
2022-11-02T08:52:42.649Z,101385.19
2022-11-02T08:55:09.274Z,101395.81
2022-11-02T08:57:49.974Z,101381.75
2022-11-02T09:00:17.878Z,101387.84
2022-11-02T09:02:44.820Z,101400.03
2022-11-02T09:05:11.615Z,101387.69
2022-11-02T09:07:38.135Z,101399.06
2022-11-02T09:10:04.926Z,101397.25
2022-11-02T09:12:31.438Z,101398.03
2022-11-02T09:14:57.906Z,101400.53
2022-11-02T09:17:24.577Z,101408.34
2022-11-02T09:19:51.028Z,101398.69
2022-11-02T09:22:17.482Z,101398.69
2022-11-02T09:24:43.899Z,101406.63
2022-11-02T09:27:10.386Z,101405.72
2022-11-02T09:29:36.776Z,101414.41
2022-11-02T09:32:03.261Z,101417.00
2022-11-02T09:34:29.666Z,101428.38
2022-11-02T09:36:56.081Z,101416.09
2022-11-02T09:39:24.764Z,101425.72
2022-11-02T09:42:07.230Z,101437.81
2022-11-02T09:45:00.864Z,101426.41
2022-11-02T09:50:23.860Z,101417.44
2022-11-02T09:52:56.522Z,101415.75
2022-11-02T09:55:31.560Z,101417.50
2022-11-02T09:58:12.620Z,101412.13
2022-11-02T10:00:41.982Z,101421.84
2022-11-02T10:03:20.909Z,101418.16
2022-11-02T10:06:06.241Z,101422.50
2022-11-02T10:08:41.413Z,101419.63
2022-11-02T10:11:29.197Z,101423.16
2022-11-02T10:14:00.779Z,101427.72
2022-11-02T10:16:42.228Z,101425.13
2022-11-02T10:19:15.902Z,101430.38
2022-11-02T10:21:46.394Z,101438.25
2022-11-02T10:24:22.412Z,101434.72
2022-11-02T10:26:49.500Z,101432.97
2022-11-02T10:29:34.029Z,101454.06
2022-11-02T10:32:02.266Z,101441.81
2022-11-02T10:34:29.499Z,101434.78
2022-11-02T10:37:09.034Z,101438.97
2022-11-02T10:39:57.352Z,101438.06
2022-11-02T10:42:52.580Z,101432.63
2022-11-02T10:45:49.601Z,101433.47
2022-11-02T10:48:37.883Z,101452.72
2022-11-02T10:51:12.863Z,101449.31
2022-11-02T10:53:42.980Z,101454.59
2022-11-02T10:56:09.678Z,101442.28
2022-11-02T10:58:42.358Z,101447.50
2022-11-02T11:01:11.209Z,101442.19
2022-11-02T11:03:58.043Z,101444.88
2022-11-02T11:06:40.021Z,101446.72
2022-11-02T11:09:23.535Z,101446.50
2022-11-02T11:11:52.645Z,101450.00
2022-11-02T11:20:39.251Z,101449.91
2022-11-02T11:23:15.454Z,101458.66
2022-11-02T11:25:42.814Z,101463.66
2022-11-02T11:28:29.592Z,101464.63
2022-11-02T11:31:18.017Z,101472.53
2022-11-02T11:33:55.055Z,101461.84
2022-11-02T11:36:34.887Z,101462.78
2022-11-02T11:39:23.598Z,101460.13
2022-11-02T11:41:50.419Z,101454.88
2022-11-02T11:44:17.142Z,101460.88
2022-11-02T11:46:54.293Z,101456.47
2022-11-02T11:50:08.105Z,101465.00
2022-11-02T11:52:31.905Z,101451.03
2022-11-02T11:55:20.717Z,101452.94
2022-11-02T11:58:04.228Z,101454.88
2022-11-02T12:00:31.063Z,101459.31
2022-11-02T12:03:06.372Z,101452.25
2022-11-02T12:06:02.285Z,101451.44
2022-11-02T12:08:52.940Z,101448.78
2022-11-02T12:11:48.698Z,101456.66
2022-11-02T12:14:52.834Z,101445.28
2022-11-02T12:17:46.177Z,101442.38
2022-11-02T12:20:36.199Z,101429.88
2022-11-02T12:23:02.920Z,101434.56
2022-11-02T12:26:06.785Z,101436.97
2022-11-02T12:29:01.235Z,101435.94
2022-11-02T12:31:41.292Z,101431.59
2022-11-02T12:34:22.999Z,101431.63
2022-11-02T12:37:32.639Z,101426.09
2022-11-02T12:40:01.444Z,101428.09
2022-11-02T12:42:43.107Z,101439.63
2022-11-02T12:45:32.030Z,101429.22
2022-11-02T12:48:05.082Z,101427.41
2022-11-02T12:50:53.391Z,101434.34
2022-11-02T12:53:34.752Z,101429.06
2022-11-02T12:56:04.144Z,101432.63
2022-11-02T12:58:35.558Z,101416.72
2022-11-02T13:01:16.905Z,101424.31
2022-11-02T13:04:14.249Z,101427.31
2022-11-02T13:06:46.807Z,101414.00
2022-11-02T13:09:31.653Z,101408.00
2022-11-02T13:12:13.372Z,101397.56
2022-11-02T13:14:43.858Z,101401.66
2022-11-02T13:17:23.113Z,101383.25
2022-11-02T13:19:56.147Z,101395.50
2022-11-02T13:22:28.510Z,101400.53
2022-11-02T13:25:06.226Z,101397.19
2022-11-02T13:27:42.582Z,101390.44
2022-11-02T13:30:15.803Z,101393.97
2022-11-02T13:32:48.211Z,101401.09
2022-11-02T13:35:31.991Z,101395.31
2022-11-02T13:38:38.027Z,101388.97
2022-11-02T13:41:13.494Z,101382.53
2022-11-02T13:43:56.283Z,101378.88
2022-11-02T13:46:45.382Z,101370.00
2022-11-02T13:49:29.410Z,101377.84
2022-11-02T13:52:05.048Z,101384.13
2022-11-02T13:54:43.638Z,101382.34
2022-11-02T13:57:28.731Z,101387.53
2022-11-02T13:59:55.537Z,101379.63
2022-11-02T14:02:24.239Z,101388.31
2022-11-02T14:04:51.213Z,101384.78
2022-11-02T14:07:28.720Z,101379.34
2022-11-02T14:10:17.193Z,101376.94
2022-11-02T14:12:50.147Z,101368.94
2022-11-02T14:15:16.525Z,101367.22
2022-11-02T14:17:55.280Z,101371.03
2022-11-02T14:20:51.237Z,101365.09
2022-11-02T14:23:23.870Z,101361.72
2022-11-02T14:25:52.364Z,101368.78
2022-11-02T14:28:25.692Z,101357.44
2022-11-02T14:31:04.478Z,101367.91
2022-11-02T14:34:02.300Z,101363.59
2022-11-02T14:37:04.551Z,101363.69
2022-11-02T14:39:47.405Z,101357.59
2022-11-02T14:42:51.050Z,101357.69
2022-11-02T14:45:46.933Z,101351.63
2022-11-02T14:48:16.161Z,101356.94
2022-11-02T14:51:02.627Z,101350.94
2022-11-02T14:53:34.257Z,101351.97
2022-11-02T14:56:00.858Z,101347.72
2022-11-02T14:58:33.984Z,101348.56
2022-11-02T15:01:04.302Z,101346.94
2022-11-02T15:03:39.747Z,101335.53
2022-11-02T15:06:19.090Z,101331.41
2022-11-02T15:08:58.347Z,101342.16
2022-11-02T15:11:46.559Z,101333.56
2022-11-02T15:14:31.776Z,101331.94
2022-11-02T15:16:58.904Z,101330.31
2022-11-02T15:19:46.585Z,101327.88
2022-11-02T15:22:31.431Z,101323.72
2022-11-02T15:25:25.921Z,101329.09
2022-11-02T15:27:56.902Z,101328.34
2022-11-02T15:30:28.410Z,101317.13
2022-11-02T15:33:06.729Z,101309.38
2022-11-02T15:35:37.031Z,101305.19
2022-11-02T15:38:28.016Z,101310.56
2022-11-02T15:41:05.947Z,101306.22
2022-11-02T15:43:46.069Z,101315.88
2022-11-02T15:46:36.686Z,101307.31
2022-11-02T15:49:21.937Z,101310.06
2022-11-02T15:51:51.451Z,101304.78
2022-11-02T15:54:33.991Z,101313.59
2022-11-02T15:57:34.335Z,101312.72
2022-11-02T16:00:13.765Z,101316.25
2022-11-02T16:02:43.638Z,101313.66
2022-11-02T16:05:23.836Z,101314.59
2022-11-02T16:10:39.369Z,101300.69
2022-11-02T16:13:16.956Z,101305.16
2022-11-02T16:15:44.621Z,101299.09
2022-11-02T16:18:44.794Z,101297.41
2022-11-02T16:21:15.365Z,101294.94
2022-11-02T16:23:50.937Z,101302.88
2022-11-02T16:26:24.009Z,101294.22
2022-11-02T16:28:56.923Z,101292.47
2022-11-02T16:31:33.452Z,101296.88
2022-11-02T16:34:04.577Z,101310.94
2022-11-02T16:36:36.591Z,101309.25
2022-11-02T16:39:13.609Z,101304.09
2022-11-02T16:41:40.951Z,101305.88
2022-11-02T16:44:16.514Z,101308.41
2022-11-02T16:46:49.856Z,101306.72
2022-11-02T16:49:19.530Z,101306.75
2022-11-02T16:52:00.832Z,101313.78
2022-11-02T16:54:33.459Z,101308.63
2022-11-02T16:57:12.068Z,101317.38
2022-11-02T16:59:46.836Z,101313.03
2022-11-02T17:02:14.995Z,101308.66
2022-11-02T17:04:43.823Z,101320.06
2022-11-02T17:07:13.629Z,101322.72
2022-11-02T17:09:40.783Z,101314.88
2022-11-02T17:12:13.456Z,101315.81
2022-11-02T17:14:49.069Z,101313.25
2022-11-02T17:17:24.640Z,101309.72
2022-11-02T17:19:55.123Z,101297.50
2022-11-02T17:22:21.454Z,101299.28
2022-11-02T17:24:48.503Z,101306.31
2022-11-02T17:27:28.486Z,101302.84
2022-11-02T17:29:54.885Z,101300.25
2022-11-02T17:32:22.135Z,101312.50
2022-11-02T17:34:53.211Z,101305.53
2022-11-02T17:37:24.145Z,101304.69
2022-11-02T17:39:51.468Z,101305.56
2022-11-02T17:42:36.734Z,101305.53
2022-11-02T17:45:21.272Z,101316.06
2022-11-02T17:47:47.665Z,101309.94
2022-11-02T17:50:14.235Z,101315.22
2022-11-02T17:52:40.948Z,101305.69
2022-11-02T17:55:14.115Z,101310.94
2022-11-02T17:57:40.536Z,101309.22
2022-11-02T18:00:07.649Z,101308.34
2022-11-02T18:02:34.226Z,101308.38
2022-11-02T18:05:00.728Z,101310.16
2022-11-02T18:07:27.256Z,101308.38
2022-11-02T18:09:53.678Z,101305.78
2022-11-02T18:12:20.084Z,101304.97
2022-11-02T18:14:46.810Z,101295.38
2022-11-02T18:17:13.281Z,101300.59
2022-11-02T18:19:39.831Z,101298.88
2022-11-02T18:22:06.233Z,101291.03
2022-11-02T18:24:32.668Z,101291.03
2022-11-02T18:26:59.110Z,101290.19
2022-11-02T18:29:25.557Z,101282.31
2022-11-02T18:31:52.055Z,101293.63
2022-11-02T18:34:18.507Z,101282.28
2022-11-02T18:36:44.987Z,101274.41
2022-11-02T18:39:11.518Z,101278.75
2022-11-02T18:41:39.583Z,101278.78
2022-11-02T18:44:13.491Z,101279.72
2022-11-02T18:46:41.540Z,101282.38
2022-11-02T18:49:07.997Z,101276.25
2022-11-02T18:51:34.606Z,101276.28
2022-11-02T18:54:03.863Z,101275.41
2022-11-02T18:56:30.509Z,101268.50
2022-11-02T18:58:57.841Z,101264.19
2022-11-02T19:01:25.042Z,101276.50
2022-11-02T19:03:56.990Z,101266.00
2022-11-02T19:06:54.344Z,101278.31
2022-11-02T19:09:23.884Z,101273.97
2022-11-02T19:12:08.897Z,101276.69
2022-11-02T19:14:38.370Z,101267.94
2022-11-02T19:17:06.284Z,101264.47
2022-11-02T19:19:33.331Z,101268.00
2022-11-02T19:22:00.236Z,101269.81
2022-11-02T19:24:26.958Z,101266.38
2022-11-02T19:26:53.488Z,101266.38
2022-11-02T19:29:19.991Z,101262.00
2022-11-02T19:31:47.280Z,101254.19
2022-11-02T19:34:13.841Z,101254.28
2022-11-02T19:36:40.314Z,101251.66
2022-11-02T19:39:10.289Z,101248.09
2022-11-02T19:41:38.630Z,101241.13
2022-11-02T19:44:05.626Z,101235.91
2022-11-02T19:46:32.335Z,101230.69
2022-11-02T19:48:59.080Z,101226.31
2022-11-02T19:51:28.407Z,101236.84
2022-11-02T19:53:58.237Z,101220.28
2022-11-02T19:56:27.389Z,101220.28
2022-11-02T19:58:54.402Z,101208.97
2022-11-02T20:01:29.919Z,101216.84
2022-11-02T20:03:57.479Z,101212.50
2022-11-02T20:06:31.764Z,101202.94
2022-11-02T20:08:59.319Z,101203.78
2022-11-02T20:11:29.379Z,101195.97
2022-11-02T20:14:01.514Z,101197.72
2022-11-02T20:16:28.369Z,101196.88
2022-11-02T20:18:55.756Z,101190.78
2022-11-02T20:21:32.429Z,101192.50
2022-11-02T20:24:02.588Z,101186.47
2022-11-02T20:26:35.533Z,101181.22
2022-11-02T20:29:04.030Z,101183.88
2022-11-02T20:31:33.395Z,101177.72
2022-11-02T20:34:00.736Z,101177.75
2022-11-02T20:36:27.529Z,101178.59
2022-11-02T20:38:54.502Z,101176.88
2022-11-02T20:41:22.800Z,101178.63
2022-11-02T20:43:51.060Z,101174.25
2022-11-02T20:49:22.493Z,101167.28
2022-11-02T20:51:52.997Z,101164.66
2022-11-02T20:54:20.826Z,101158.56
2022-11-02T20:56:48.467Z,101155.94
2022-11-02T20:59:15.421Z,101160.31
2022-11-02T21:01:42.057Z,101152.47
2022-11-02T21:04:08.709Z,101150.75
2022-11-02T21:06:35.137Z,101144.69
2022-11-02T21:09:07.637Z,101144.66
2022-11-02T21:11:55.980Z,101144.66
2022-11-02T21:14:23.399Z,101132.41
2022-11-02T21:16:49.812Z,101128.94
2022-11-02T21:19:16.332Z,101129.81
2022-11-02T21:21:42.752Z,101129.75
2022-11-02T21:24:09.688Z,101122.72
2022-11-02T21:26:36.145Z,101124.47
2022-11-02T21:29:02.566Z,101129.69
2022-11-02T21:31:28.957Z,101125.31
2022-11-02T21:33:55.379Z,101131.34
2022-11-02T21:36:21.792Z,101113.06
2022-11-02T21:38:51.124Z,101116.59
2022-11-02T21:41:22.435Z,101114.81
2022-11-02T21:43:51.950Z,101103.47
2022-11-02T21:46:19.610Z,101098.25
2022-11-02T21:48:46.078Z,101106.97
2022-11-02T21:51:13.884Z,101106.06
2022-11-02T21:53:42.764Z,101106.06
2022-11-02T21:56:10.546Z,101103.41
2022-11-02T21:58:42.947Z,101092.00
2022-11-02T22:01:33.582Z,101095.47
2022-11-02T22:04:00.553Z,101089.31
2022-11-02T22:06:31.351Z,101088.44
2022-11-02T22:08:59.243Z,101080.56
2022-11-02T22:11:29.591Z,101084.03
2022-11-02T22:14:00.366Z,101080.50
2022-11-02T22:16:28.149Z,101084.84
2022-11-02T22:18:59.890Z,101084.81
2022-11-02T22:21:29.207Z,101076.94
2022-11-02T22:23:56.598Z,101080.44
2022-11-02T22:26:25.578Z,101078.66
2022-11-02T22:28:52.775Z,101075.19
2022-11-02T22:31:24.836Z,101071.69
2022-11-02T22:33:53.613Z,101071.66
2022-11-02T22:36:28.277Z,101063.78
2022-11-02T22:38:56.233Z,101061.16
2022-11-02T22:41:30.102Z,101055.03
2022-11-02T22:43:59.739Z,101041.03
2022-11-02T22:46:27.652Z,101047.09
2022-11-02T22:48:56.105Z,101035.69
2022-11-02T22:51:24.970Z,101040.97
2022-11-02T22:53:51.926Z,101027.84
2022-11-02T22:56:20.818Z,101025.25
2022-11-02T22:58:48.775Z,101026.09
2022-11-02T23:01:21.097Z,101024.38
2022-11-02T23:03:48.123Z,101029.63
2022-11-02T23:06:15.810Z,101018.31
2022-11-02T23:08:45.640Z,101017.47
2022-11-02T23:11:22.014Z,101007.03
2022-11-02T23:13:54.012Z,101011.44
2022-11-02T23:16:22.538Z,101005.41
2022-11-02T23:19:12.131Z,101001.91
2022-11-02T23:21:42.201Z,100996.72
2022-11-02T23:24:27.767Z,100995.81
2022-11-02T23:26:54.646Z,100994.13
2022-11-02T23:29:39.437Z,100986.25
2022-11-02T23:32:24.401Z,100970.56
2022-11-02T23:35:09.261Z,100967.94
2022-11-02T23:37:35.741Z,100972.31
2022-11-02T23:40:02.796Z,100975.00
2022-11-02T23:42:29.257Z,100984.63
2022-11-02T23:44:55.706Z,100979.44
2022-11-02T23:47:44.975Z,100980.31
2022-11-02T23:50:11.444Z,100970.72
2022-11-02T23:52:56.453Z,100979.41
2022-11-02T23:55:41.234Z,100973.34
2022-11-02T23:58:08.043Z,100974.22
